PWSweather.com
Personal Weather Stations
Station Observations
PITCARMI1
La Serra, CarmignanoIT 59015

La SerraCarmignanoIT 59015

Lat: 43.804429, Lon: 11.027222

Elevation: 525

Station Type: Davis Vantage Vue

http://www.meteocarmignano.it

Latest ConditionsUpdated 12:00:09 PM GMT+01:01 Monday, Sep 1, 2014
Currently Today's Max Today's Min Today's Average
Temperature 70.3°F21.3°C 70.4°F21.3°C 59.9°F15.5°C 64.5°F18.1°C
Dew Point 50.8°F10.4°C 64.9°F18.3°C 49.9°F9.9°C 56.6°F13.7°C
Winds 8.6 mph ENE13.8 kmh ENE 12.9 mph E20.8 kmh E - 3.9 mph 6.3 kmh
Wind Gusts 13.0 mph20.9 kmh 17.0 mph27.4 kmh - -
Humidity 50% 93% 49% 77%
Pressure 29.71 in1006.1 mb 29.71 in1006.1 mb 29.66 in1004.4 mb -
Precipitation - 0.80 in20.3 mm - -
Hour Temp Dew Point Humidity Winds Wind Gusts Pressure Precip Precip Rate Daily Precip Total
12:00 PM 70.3°F21.3°C 50.8°F10.4°C 50% 8.6 mph ENE13.8 kmh ENE 13.0 mph20.9 kmh 29.71 in1006.1 mb 0.00 in0.0 mm 0.00 in/hr0.0 mm/hr 0.80 in20.3 mm
11:30 AM 70.4°F21.3°C 50.9°F10.5°C 50% 9.9 mph NE15.9 kmh NE 17.0 mph27.4 kmh 29.71 in1006.1 mb 0.00 in0.0 mm 0.00 in/hr0.0 mm/hr 0.80 in20.3 mm
11:00 AM 70.0°F21.1°C 49.9°F9.9°C 49% 11.3 mph NE18.2 kmh NE 17.0 mph27.4 kmh 29.71 in1006.1 mb 0.00 in0.0 mm 0.00 in/hr0.0 mm/hr 0.80 in20.3 mm
10:30 AM 69.1°F20.6°C 51.2°F10.7°C 53% 12.9 mph E20.8 kmh E 17.0 mph27.4 kmh 29.71 in1006.1 mb 0.00 in0.0 mm 0.00 in/hr0.0 mm/hr 0.80 in20.3 mm
10:00 AM 67.5°F19.7°C 52.7°F11.5°C 59% 1.0 mph NE1.6 kmh NE 2.0 mph3.2 kmh 29.70 in1005.8 mb 0.00 in0.0 mm 0.00 in/hr0.0 mm/hr 0.80 in20.3 mm
09:30 AM 66.8°F19.3°C 52.9°F11.6°C 61% 2.0 mph E3.2 kmh E 4.0 mph6.4 kmh 29.70 in1005.8 mb 0.00 in0.0 mm 0.00 in/hr0.0 mm/hr 0.80 in20.3 mm
09:00 AM 65.6°F18.7°C 52.2°F11.2°C 62% 9.6 mph E15.4 kmh E 13.0 mph20.9 kmh 29.70 in1005.8 mb 0.00 in0.0 mm 0.00 in/hr0.0 mm/hr 0.80 in20.3 mm
08:30 AM 64.7°F18.2°C 53.9°F12.2°C 68% 3.6 mph NE5.8 kmh NE 8.0 mph12.9 kmh 29.70 in1005.8 mb 0.00 in0.0 mm 0.00 in/hr0.0 mm/hr 0.80 in20.3 mm
08:00 AM 63.1°F17.3°C 53.9°F12.2°C 72% 6.0 mph NNE9.7 kmh NNE 11.0 mph17.7 kmh 29.70 in1005.8 mb 0.00 in0.0 mm 0.00 in/hr0.0 mm/hr 0.80 in20.3 mm
07:30 AM 62.1°F16.7°C 55.9°F13.3°C 80% 3.0 mph N4.8 kmh N 6.0 mph9.7 kmh 29.70 in1005.8 mb 0.00 in0.0 mm 0.00 in/hr0.0 mm/hr 0.80 in20.3 mm
07:00 AM 60.5°F15.8°C 57.6°F14.2°C 90% 2.1 mph N3.4 kmh N 6.0 mph9.7 kmh 29.70 in1005.8 mb 0.00 in0.0 mm 0.00 in/hr0.0 mm/hr 0.80 in20.3 mm
06:30 AM 60.6°F15.9°C 58.0°F14.4°C 91% 2.3 mph E3.7 kmh E 9.0 mph14.5 kmh 29.69 in1005.4 mb 0.00 in0.0 mm 0.00 in/hr0.0 mm/hr 0.80 in20.3 mm
06:00 AM 60.3°F15.7°C 57.9°F14.4°C 92% 0.4 mph NE0.6 kmh NE 1.0 mph1.6 kmh 29.68 in1005.1 mb 0.00 in0.0 mm 0.00 in/hr0.0 mm/hr 0.80 in20.3 mm
05:30 AM 59.9°F15.5°C 57.9°F14.4°C 93% 0.6 mph WSW1.0 kmh WSW 1.0 mph1.6 kmh 29.66 in1004.4 mb 0.02 in0.5 mm 0.04 in/hr1.0 mm/hr 0.80 in20.3 mm
05:00 AM 60.3°F15.7°C 58.3°F14.6°C 93% 0.4 mph WSW0.6 kmh WSW 2.0 mph3.2 kmh 29.69 in1005.4 mb 0.03 in0.8 mm 0.06 in/hr1.5 mm/hr 0.78 in19.8 mm
04:30 AM 60.4°F15.8°C 58.1°F14.5°C 92% 1.4 mph E2.3 kmh E 3.0 mph4.8 kmh 29.67 in1004.7 mb 0.04 in1.0 mm 0.08 in/hr2.0 mm/hr 0.75 in19.1 mm
04:00 AM 60.5°F15.8°C 58.2°F14.6°C 92% 0.3 mph SE0.5 kmh SE 1.0 mph1.6 kmh 29.66 in1004.4 mb 0.11 in2.8 mm 0.22 in/hr5.6 mm/hr 0.71 in18.0 mm
03:30 AM 60.9°F16.1°C 58.6°F14.8°C 92% 0.6 mph WSW1.0 kmh WSW 1.0 mph1.6 kmh 29.69 in1005.4 mb 0.25 in6.4 mm 0.50 in/hr12.7 mm/hr 0.60 in15.2 mm
03:00 AM 61.1°F16.2°C 58.5°F14.7°C 91% 3.6 mph NW5.8 kmh NW 4.0 mph6.4 kmh 29.66 in1004.4 mb 0.30 in7.6 mm 0.60 in/hr15.2 mm/hr 0.36 in9.1 mm
02:30 AM 64.0°F17.8°C 59.4°F15.2°C 85% 5.2 mph NE8.4 kmh NE 12.0 mph19.3 kmh 29.70 in1005.8 mb 0.08 in2.0 mm 0.16 in/hr4.1 mm/hr 0.08 in2.0 mm
02:00 AM 68.3°F20.2°C 64.9°F18.3°C 89% 0.1 mph E0.2 kmh E 1.0 mph1.6 kmh 29.69 in1005.4 mb 0.00 in0.0 mm 0.00 in/hr0.0 mm/hr 0.00 in0.0 mm
01:30 AM 68.5°F20.3°C 64.8°F18.2°C 88% 0.2 mph SSE0.3 kmh SSE 1.0 mph1.6 kmh 29.69 in1005.4 mb 0.00 in0.0 mm 0.00 in/hr0.0 mm/hr 0.00 in0.0 mm
01:00 AM 68.2°F20.1°C 64.5°F18.1°C 88% 3.8 mph E6.1 kmh E 6.0 mph9.7 kmh 29.69 in1005.4 mb 0.00 in0.0 mm 0.00 in/hr0.0 mm/hr 0.00 in0.0 mm